createdAt,value
2022-08-16T00:00:04.571Z,21.50
2022-08-16T00:02:46.958Z,21.50
2022-08-16T00:05:15.790Z,21.50
2022-08-16T00:07:43.711Z,21.50
2022-08-16T00:10:21.009Z,21.50
2022-08-16T00:12:51.047Z,21.50
2022-08-16T00:15:22.854Z,21.50
2022-08-16T00:17:56.185Z,21.50
2022-08-16T00:20:25.204Z,21.50
2022-08-16T00:22:53.790Z,21.50
2022-08-16T00:26:34.338Z,21.50
2022-08-16T00:28:13.972Z,21.50
2022-08-16T00:30:42.587Z,21.50
2022-08-16T00:33:12.752Z,21.50
2022-08-16T00:35:41.079Z,21.50
2022-08-16T00:38:41.514Z,21.50
2022-08-16T00:40:59.414Z,21.50
2022-08-16T00:43:43.298Z,21.50
2022-08-16T00:46:22.432Z,21.50
2022-08-16T00:49:03.747Z,21.50
2022-08-16T00:51:34.887Z,21.50
2022-08-16T00:54:08.516Z,21.40
2022-08-16T00:56:58.010Z,21.50
2022-08-16T00:59:35.542Z,21.40
2022-08-16T01:02:30.299Z,21.40
2022-08-16T01:05:10.312Z,21.40
2022-08-16T01:07:50.876Z,21.40
2022-08-16T01:10:20.356Z,21.30
2022-08-16T01:12:48.433Z,21.30
2022-08-16T01:15:18.346Z,21.40
2022-08-16T01:17:56.090Z,21.30
2022-08-16T01:20:30.411Z,21.40
2022-08-16T01:23:04.379Z,21.30
2022-08-16T01:25:45.137Z,21.30
2022-08-16T01:28:30.901Z,21.20
2022-08-16T01:31:00.659Z,21.20
2022-08-16T01:33:33.369Z,21.20
2022-08-16T01:36:11.698Z,21.20
2022-08-16T01:38:48.897Z,21.20
2022-08-16T01:41:25.643Z,21.10
2022-08-16T01:44:01.079Z,21.10
2022-08-16T01:46:40.221Z,21.10
2022-08-16T01:49:11.714Z,21.10
2022-08-16T01:51:42.314Z,21.10
2022-08-16T01:54:13.256Z,21.00
2022-08-16T01:56:44.643Z,21.00
2022-08-16T01:59:17.561Z,21.10
2022-08-16T02:04:48.387Z,21.00
2022-08-16T02:07:13.282Z,21.00
2022-08-16T02:09:42.147Z,21.00
2022-08-16T02:12:42.132Z,21.00
2022-08-16T02:15:02.881Z,21.00
2022-08-16T02:17:30.702Z,21.00
2022-08-16T02:20:00.614Z,21.00
2022-08-16T02:22:36.841Z,21.00
2022-08-16T02:25:09.900Z,21.00
2022-08-16T02:27:39.621Z,21.00
2022-08-16T02:30:37.058Z,21.00
2022-08-16T02:33:03.407Z,20.90
2022-08-16T02:35:31.449Z,20.90
2022-08-16T02:38:01.666Z,20.90
2022-08-16T02:40:37.315Z,20.90
2022-08-16T02:43:07.019Z,20.80
2022-08-16T02:45:35.970Z,20.80
2022-08-16T02:48:29.309Z,20.80
2022-08-16T02:51:03.073Z,20.70
2022-08-16T02:53:45.163Z,20.70
2022-08-16T02:56:15.148Z,20.70
2022-08-16T02:58:45.628Z,20.60
2022-08-16T03:01:25.183Z,20.60
2022-08-16T03:04:39.846Z,20.60
2022-08-16T03:06:51.381Z,20.60
2022-08-16T03:09:25.274Z,20.60
2022-08-16T03:11:57.947Z,20.60
2022-08-16T03:14:27.790Z,20.50
2022-08-16T03:17:00.222Z,20.60
2022-08-16T03:19:48.367Z,20.50
2022-08-16T03:22:19.135Z,20.50
2022-08-16T03:24:57.509Z,20.50
2022-08-16T03:27:31.015Z,20.50
2022-08-16T03:30:01.424Z,20.50
2022-08-16T03:32:30.015Z,20.50
2022-08-16T03:34:57.795Z,20.50
2022-08-16T03:37:25.670Z,20.50
2022-08-16T03:39:56.246Z,20.50
2022-08-16T03:42:24.715Z,20.50
2022-08-16T03:45:03.309Z,20.50
2022-08-16T03:47:34.869Z,20.50
2022-08-16T03:50:26.026Z,20.50
2022-08-16T03:53:00.533Z,20.50
2022-08-16T03:55:37.124Z,20.50
2022-08-16T03:58:13.793Z,20.50
2022-08-16T04:00:42.325Z,20.50
2022-08-16T04:03:11.618Z,20.50
2022-08-16T04:05:44.324Z,20.50
2022-08-16T04:08:23.615Z,20.50
2022-08-16T04:10:53.804Z,20.50
2022-08-16T04:14:01.562Z,20.50
2022-08-16T04:16:26.142Z,20.60
2022-08-16T04:19:02.051Z,20.60
2022-08-16T04:21:32.086Z,20.60
2022-08-16T04:24:00.630Z,20.60
2022-08-16T04:26:31.213Z,20.60
2022-08-16T04:29:16.235Z,20.60
2022-08-16T04:31:56.473Z,20.60
2022-08-16T04:34:29.587Z,20.60
2022-08-16T04:36:58.981Z,20.60
2022-08-16T04:39:46.241Z,20.60
2022-08-16T04:42:16.305Z,20.70
2022-08-16T04:44:53.613Z,20.70
2022-08-16T04:47:25.069Z,20.70
2022-08-16T04:49:57.643Z,20.70
2022-08-16T04:52:34.736Z,20.80
2022-08-16T04:55:09.641Z,20.80
2022-08-16T04:57:41.388Z,20.80
2022-08-16T05:00:31.750Z,20.80
2022-08-16T05:03:08.358Z,20.80
2022-08-16T05:05:45.251Z,20.80
2022-08-16T05:08:29.638Z,20.80
2022-08-16T05:11:03.360Z,20.90
2022-08-16T05:13:41.134Z,20.90
2022-08-16T05:16:20.090Z,20.90
2022-08-16T05:18:50.096Z,20.90
2022-08-16T05:21:21.690Z,20.90
2022-08-16T05:23:51.771Z,21.00
2022-08-16T05:26:28.107Z,21.00
2022-08-16T05:28:56.542Z,21.10
2022-08-16T05:31:29.996Z,21.10
2022-08-16T05:33:59.880Z,21.10
2022-08-16T05:36:34.115Z,21.20
2022-08-16T05:39:05.836Z,21.20
2022-08-16T05:41:33.891Z,21.20
2022-08-16T05:44:23.509Z,21.30
2022-08-16T05:46:52.792Z,21.40
2022-08-16T05:49:22.435Z,21.40
2022-08-16T05:51:53.013Z,21.40
2022-08-16T05:54:25.470Z,21.50
2022-08-16T05:56:55.840Z,21.50
2022-08-16T05:59:24.841Z,21.50
2022-08-16T06:01:55.537Z,21.60
2022-08-16T06:04:36.252Z,21.60
2022-08-16T06:07:09.147Z,21.70
2022-08-16T06:09:53.099Z,21.70
2022-08-16T06:12:26.761Z,21.70
2022-08-16T06:14:59.849Z,21.70
2022-08-16T06:17:41.447Z,21.70
2022-08-16T06:20:18.121Z,21.70
2022-08-16T06:23:03.099Z,21.80
2022-08-16T06:25:36.124Z,21.70
2022-08-16T06:28:08.468Z,21.80
2022-08-16T06:30:44.191Z,21.80
2022-08-16T06:33:22.077Z,21.80
2022-08-16T06:35:55.186Z,21.80
2022-08-16T06:38:33.650Z,21.90
2022-08-16T06:41:04.687Z,22.00
2022-08-16T06:43:34.051Z,22.10
2022-08-16T06:46:03.805Z,22.20
2022-08-16T06:48:33.767Z,22.40
2022-08-16T06:51:03.303Z,22.60
2022-08-16T06:53:35.800Z,22.70
2022-08-16T06:56:14.805Z,22.80
2022-08-16T06:58:51.229Z,23.00
2022-08-16T07:01:24.341Z,23.10
2022-08-16T07:04:11.817Z,23.20
2022-08-16T07:06:43.110Z,23.30
2022-08-16T07:09:13.082Z,23.40
2022-08-16T07:11:45.672Z,23.50
2022-08-16T07:14:25.559Z,23.50
2022-08-16T07:16:57.903Z,23.60
2022-08-16T07:20:03.598Z,23.80
2022-08-16T07:22:39.124Z,23.90
2022-08-16T07:25:05.301Z,24.00
2022-08-16T07:27:33.734Z,24.10
2022-08-16T07:30:39.420Z,24.10
2022-08-16T07:32:56.948Z,24.20
2022-08-16T07:35:25.455Z,24.30
2022-08-16T07:37:53.480Z,24.40
2022-08-16T07:40:49.200Z,24.40
2022-08-16T07:43:11.027Z,24.40
2022-08-16T07:45:39.268Z,24.40
2022-08-16T07:48:12.522Z,24.40
2022-08-16T07:50:55.673Z,24.40
2022-08-16T07:53:29.028Z,24.40
2022-08-16T07:56:00.351Z,24.40
2022-08-16T07:58:35.099Z,24.40
2022-08-16T08:01:10.897Z,24.40
2022-08-16T08:03:47.704Z,24.40
2022-08-16T08:06:17.629Z,24.40
2022-08-16T08:08:50.284Z,24.50
2022-08-16T08:11:23.866Z,24.50
2022-08-16T08:13:53.877Z,24.60
2022-08-16T08:16:30.277Z,24.60
2022-08-16T08:19:02.911Z,24.60
2022-08-16T08:22:01.519Z,24.70
2022-08-16T08:24:21.516Z,24.70
2022-08-16T08:26:50.813Z,24.80
2022-08-16T08:29:22.941Z,24.80
2022-08-16T08:31:53.128Z,24.80
2022-08-16T08:34:23.148Z,24.80
2022-08-16T08:36:54.312Z,24.80
2022-08-16T08:39:23.559Z,24.90
2022-08-16T08:41:53.311Z,25.00
2022-08-16T08:44:29.449Z,25.00
2022-08-16T08:47:01.552Z,25.10
2022-08-16T08:49:50.458Z,25.10
2022-08-16T08:52:33.782Z,25.20
2022-08-16T08:55:09.498Z,25.30
2022-08-16T08:57:41.620Z,25.30
2022-08-16T09:00:14.266Z,25.30
2022-08-16T09:02:45.639Z,25.40
2022-08-16T09:05:22.600Z,25.40
2022-08-16T09:08:00.888Z,25.50
2022-08-16T09:10:30.293Z,25.60
2022-08-16T09:12:59.539Z,25.70
2022-08-16T09:15:32.956Z,25.70
2022-08-16T09:18:24.756Z,25.80
2022-08-16T09:20:58.341Z,25.90
2022-08-16T09:23:28.262Z,25.90
2022-08-16T09:25:56.023Z,25.90
2022-08-16T09:29:06.715Z,26.00
2022-08-16T09:31:14.595Z,26.00
2022-08-16T09:33:43.475Z,26.10
2022-08-16T09:36:31.567Z,26.20
2022-08-16T09:39:03.287Z,26.20
2022-08-16T09:41:31.632Z,26.20
2022-08-16T09:45:09.141Z,26.30
2022-08-16T09:46:53.821Z,26.40
2022-08-16T09:49:36.708Z,26.40
2022-08-16T09:52:05.855Z,26.30
2022-08-16T09:54:34.155Z,26.30
2022-08-16T09:57:02.287Z,26.30
2022-08-16T09:59:38.437Z,26.30
2022-08-16T10:02:26.412Z,26.50
2022-08-16T10:04:55.964Z,26.60
2022-08-16T10:07:24.446Z,26.70
2022-08-16T10:09:55.032Z,26.80
2022-08-16T10:12:43.135Z,26.90
2022-08-16T10:15:18.094Z,27.00
2022-08-16T10:18:00.698Z,27.10
2022-08-16T10:20:32.513Z,27.20
2022-08-16T10:23:07.371Z,27.20
2022-08-16T10:27:19.484Z,27.30
2022-08-16T10:28:31.852Z,27.30
2022-08-16T10:31:03.699Z,27.30
2022-08-16T10:33:34.016Z,27.50
2022-08-16T10:36:07.615Z,27.60
2022-08-16T10:38:37.551Z,27.80
2022-08-16T10:41:06.972Z,27.90
2022-08-16T10:43:36.122Z,28.10
2022-08-16T10:46:39.493Z,28.10
2022-08-16T10:48:56.648Z,28.20
2022-08-16T10:51:34.659Z,28.30
2022-08-16T10:54:29.331Z,28.40
2022-08-16T10:56:58.661Z,28.40
2022-08-16T10:59:38.849Z,28.60
2022-08-16T11:02:57.740Z,28.70
2022-08-16T11:05:08.835Z,28.80
2022-08-16T11:07:51.382Z,28.60
2022-08-16T11:16:25.467Z,27.90
2022-08-16T11:19:05.925Z,27.70
2022-08-16T11:24:40.015Z,27.30
2022-08-16T11:27:20.107Z,27.30
2022-08-16T11:29:52.261Z,27.10
2022-08-16T11:32:30.339Z,27.10
2022-08-16T11:35:14.879Z,27.00
2022-08-16T11:40:40.778Z,26.80
2022-08-16T11:43:16.958Z,26.80
2022-08-16T11:45:54.042Z,26.60
2022-08-16T11:48:25.997Z,26.50
2022-08-16T11:50:55.950Z,26.40
2022-08-16T11:53:24.894Z,26.40
2022-08-16T11:55:54.942Z,26.30
2022-08-16T11:58:25.344Z,26.20
2022-08-16T12:01:03.173Z,26.20
2022-08-16T12:03:34.820Z,26.10
2022-08-16T12:06:25.083Z,26.10
2022-08-16T12:09:02.379Z,26.10
2022-08-16T12:11:35.973Z,26.20
2022-08-16T12:14:07.266Z,26.20
2022-08-16T12:16:37.034Z,26.30
2022-08-16T12:19:10.631Z,26.50
2022-08-16T12:21:58.803Z,26.70
2022-08-16T12:24:28.485Z,26.90
2022-08-16T12:26:56.693Z,27.20
2022-08-16T12:29:31.467Z,27.30
2022-08-16T12:32:35.757Z,27.30
2022-08-16T12:34:52.935Z,27.40
2022-08-16T12:37:26.020Z,27.50
2022-08-16T12:39:57.892Z,27.50
2022-08-16T12:42:35.188Z,27.60
2022-08-16T12:45:04.335Z,27.60
2022-08-16T12:48:04.936Z,27.80
2022-08-16T12:50:40.824Z,27.90
2022-08-16T12:53:10.010Z,28.10
2022-08-16T12:55:41.630Z,28.20
2022-08-16T12:58:14.021Z,28.30
2022-08-16T13:00:58.388Z,28.30
2022-08-16T13:03:32.279Z,28.20
2022-08-16T13:06:08.874Z,28.20
2022-08-16T13:08:38.551Z,28.10
2022-08-16T13:11:09.186Z,28.10
2022-08-16T13:13:37.012Z,28.10
2022-08-16T13:16:15.305Z,28.10
2022-08-16T13:18:54.532Z,28.10
2022-08-16T13:21:23.963Z,28.20
2022-08-16T13:23:55.140Z,28.30
2022-08-16T13:26:24.130Z,28.40
2022-08-16T13:28:53.243Z,28.50
2022-08-16T13:31:21.795Z,28.50
2022-08-16T13:33:52.012Z,28.50
2022-08-16T13:36:45.731Z,28.60
2022-08-16T13:39:12.981Z,28.70
2022-08-16T13:41:41.660Z,28.90
2022-08-16T13:44:10.100Z,29.00
2022-08-16T13:46:38.772Z,29.10
2022-08-16T13:49:09.842Z,29.10
2022-08-16T13:51:39.214Z,29.00
2022-08-16T13:54:07.706Z,29.00
2022-08-16T13:56:39.796Z,29.00
2022-08-16T13:59:19.609Z,29.00
2022-08-16T14:01:56.003Z,29.00
2022-08-16T14:04:28.037Z,29.10
2022-08-16T14:06:57.395Z,29.10
2022-08-16T14:09:27.317Z,29.10
2022-08-16T14:11:58.484Z,29.10
2022-08-16T14:14:30.078Z,29.10
2022-08-16T14:16:59.245Z,29.10
2022-08-16T14:19:27.716Z,29.10
2022-08-16T14:22:14.216Z,29.10
2022-08-16T14:24:45.303Z,29.10
2022-08-16T14:27:17.802Z,29.20
2022-08-16T14:29:49.440Z,29.20
2022-08-16T14:32:32.518Z,29.20
2022-08-16T14:35:07.379Z,29.30
2022-08-16T14:37:35.721Z,29.30
2022-08-16T14:40:04.225Z,29.20
2022-08-16T14:42:36.883Z,29.30
2022-08-16T14:45:09.488Z,29.20
2022-08-16T14:47:38.335Z,29.20
2022-08-16T14:50:08.240Z,29.30
2022-08-16T14:52:55.081Z,29.20
2022-08-16T14:55:24.893Z,29.10
2022-08-16T14:57:54.555Z,29.00
2022-08-16T15:00:32.843Z,28.90
2022-08-16T15:03:05.714Z,28.80
2022-08-16T15:05:34.326Z,28.70
2022-08-16T15:08:03.314Z,28.70
2022-08-16T15:10:31.949Z,28.70
2022-08-16T15:13:01.938Z,28.80
2022-08-16T15:15:31.362Z,28.80
2022-08-16T15:18:01.835Z,28.70
2022-08-16T15:20:32.275Z,28.60
2022-08-16T15:23:02.300Z,28.60
2022-08-16T15:25:33.029Z,28.60
2022-08-16T15:28:05.656Z,28.50
2022-08-16T15:30:57.860Z,28.60
2022-08-16T15:33:25.823Z,28.60
2022-08-16T15:35:55.489Z,28.60
2022-08-16T15:38:58.099Z,28.60
2022-08-16T15:41:32.393Z,28.50
2022-08-16T15:44:05.327Z,28.40
2022-08-16T15:46:54.574Z,28.30
2022-08-16T15:49:37.027Z,28.30
2022-08-16T15:52:10.527Z,28.20
2022-08-16T15:54:52.431Z,28.20
2022-08-16T15:57:22.034Z,28.20
2022-08-16T15:59:55.556Z,28.30
2022-08-16T16:02:29.201Z,28.30
2022-08-16T16:05:01.503Z,28.30
2022-08-16T16:07:30.899Z,28.20
2022-08-16T16:09:59.451Z,28.20
2022-08-16T16:15:19.008Z,28.30
2022-08-16T16:17:51.236Z,28.30
2022-08-16T16:20:20.894Z,28.30
2022-08-16T16:22:49.321Z,28.40
2022-08-16T16:25:19.118Z,28.40
2022-08-16T16:27:55.743Z,28.50
2022-08-16T16:30:37.676Z,28.60
2022-08-16T16:33:15.777Z,28.60
2022-08-16T16:35:55.369Z,28.70
2022-08-16T16:38:26.947Z,28.60
2022-08-16T16:40:55.102Z,28.60
2022-08-16T16:43:25.447Z,28.60
2022-08-16T16:45:54.801Z,28.50
2022-08-16T16:48:22.793Z,28.50
2022-08-16T16:50:58.405Z,28.50
2022-08-16T16:53:31.870Z,28.40
2022-08-16T16:56:10.289Z,28.30
2022-08-16T16:58:56.247Z,28.20
2022-08-16T17:01:35.005Z,28.10
2022-08-16T17:04:22.141Z,28.00
2022-08-16T17:06:53.428Z,27.90
2022-08-16T17:09:21.702Z,27.80
2022-08-16T17:11:55.166Z,27.70
2022-08-16T17:14:33.477Z,27.70
2022-08-16T17:17:06.441Z,27.60
2022-08-16T17:19:40.150Z,27.50
2022-08-16T17:22:13.917Z,27.50
2022-08-16T17:24:58.725Z,27.50
2022-08-16T17:27:32.740Z,27.40
2022-08-16T17:30:02.772Z,27.40
2022-08-16T17:32:44.434Z,27.30
2022-08-16T17:35:19.119Z,27.30
2022-08-16T17:37:51.848Z,27.20
2022-08-16T17:40:25.692Z,27.20
2022-08-16T17:43:10.723Z,27.10
2022-08-16T17:45:39.380Z,27.00
2022-08-16T17:48:08.921Z,26.90
2022-08-16T17:50:37.423Z,26.80
2022-08-16T17:53:07.746Z,26.80
2022-08-16T17:55:37.491Z,26.80
2022-08-16T17:58:19.822Z,26.70
2022-08-16T18:00:53.354Z,26.60
2022-08-16T18:04:03.100Z,26.60
2022-08-16T18:06:15.736Z,26.60
2022-08-16T18:08:43.549Z,26.50
2022-08-16T18:11:13.376Z,26.50
2022-08-16T18:13:43.299Z,26.50
2022-08-16T18:16:11.776Z,26.40
2022-08-16T18:18:40.973Z,26.40
2022-08-16T18:21:26.768Z,26.30
2022-08-16T18:23:54.614Z,26.30
2022-08-16T18:26:22.340Z,26.20
2022-08-16T18:28:50.470Z,26.20
2022-08-16T18:31:18.409Z,26.10
2022-08-16T18:33:47.720Z,26.00
2022-08-16T18:36:20.757Z,26.00
2022-08-16T18:38:49.203Z,25.90
2022-08-16T18:41:19.946Z,25.90
2022-08-16T18:44:23.158Z,25.80
2022-08-16T18:46:39.197Z,25.80
2022-08-16T18:49:08.546Z,25.70
2022-08-16T18:51:37.871Z,25.70
2022-08-16T18:54:05.899Z,25.60
2022-08-16T18:56:56.989Z,25.50
2022-08-16T18:59:21.726Z,25.50
2022-08-16T19:01:53.533Z,25.40
2022-08-16T19:04:55.365Z,25.30
2022-08-16T19:07:17.374Z,25.30
2022-08-16T19:09:45.578Z,25.20
2022-08-16T19:12:15.926Z,25.10
2022-08-16T19:14:44.199Z,25.00
2022-08-16T19:17:12.159Z,25.00
2022-08-16T19:19:41.367Z,24.90
2022-08-16T19:22:09.356Z,24.90
2022-08-16T19:24:37.112Z,24.80
2022-08-16T19:27:10.085Z,24.80
2022-08-16T19:29:37.868Z,24.80
2022-08-16T19:32:05.943Z,24.70
2022-08-16T19:34:33.682Z,24.70
2022-08-16T19:37:04.862Z,24.60
2022-08-16T19:39:32.962Z,24.60
2022-08-16T19:42:12.293Z,24.50
2022-08-16T19:44:40.457Z,24.50
2022-08-16T19:47:11.539Z,24.40
2022-08-16T19:49:42.555Z,24.40
2022-08-16T19:52:17.468Z,24.30
2022-08-16T19:54:46.236Z,24.20
2022-08-16T19:57:14.626Z,24.20
2022-08-16T19:59:44.526Z,24.10
2022-08-16T20:02:32.626Z,24.10
2022-08-16T20:05:05.327Z,24.10
2022-08-16T20:07:34.495Z,24.00
2022-08-16T20:10:02.571Z,24.00
2022-08-16T20:12:30.391Z,24.00
2022-08-16T20:14:59.186Z,23.90
2022-08-16T20:17:27.180Z,23.90
2022-08-16T20:19:54.909Z,23.90
2022-08-16T20:22:51.769Z,23.90
2022-08-16T20:25:19.068Z,23.90
2022-08-16T20:27:47.203Z,23.90
2022-08-16T20:30:16.291Z,23.80
2022-08-16T20:32:45.546Z,23.80
2022-08-16T20:35:15.661Z,23.80
2022-08-16T20:37:43.450Z,23.70
2022-08-16T20:40:28.423Z,23.70
2022-08-16T20:43:09.998Z,23.70
2022-08-16T20:45:38.826Z,23.70
2022-08-16T20:48:08.910Z,23.70
2022-08-16T20:50:37.478Z,23.60
2022-08-16T20:53:06.302Z,23.60
2022-08-16T20:55:35.496Z,23.50
2022-08-16T20:58:04.758Z,23.50
2022-08-16T21:00:33.526Z,23.50
2022-08-16T21:03:01.412Z,23.40
2022-08-16T21:05:31.070Z,23.40
2022-08-16T21:07:59.729Z,23.40
2022-08-16T21:10:27.926Z,23.30
2022-08-16T21:12:58.703Z,23.30
2022-08-16T21:15:28.715Z,23.30
2022-08-16T21:17:56.539Z,23.20
2022-08-16T21:20:26.025Z,23.20
2022-08-16T21:22:55.082Z,23.10
2022-08-16T21:25:23.682Z,23.10
2022-08-16T21:28:39.416Z,23.10
2022-08-16T21:30:46.841Z,23.10
2022-08-16T21:33:19.005Z,23.00
2022-08-16T21:35:48.585Z,23.00
2022-08-16T21:38:29.675Z,23.00
2022-08-16T21:40:58.579Z,22.90
2022-08-16T21:43:27.640Z,22.90
2022-08-16T21:45:56.761Z,22.90
2022-08-16T21:48:34.697Z,22.90
2022-08-16T21:51:06.685Z,22.80
2022-08-16T21:53:37.649Z,22.80
2022-08-16T21:56:06.392Z,22.70
2022-08-16T21:58:34.825Z,22.70
2022-08-16T22:01:05.130Z,22.70
2022-08-16T22:03:33.237Z,22.60
2022-08-16T22:06:14.182Z,22.60
2022-08-16T22:08:49.687Z,22.60
2022-08-16T22:11:22.214Z,22.50
2022-08-16T22:13:57.692Z,22.50
2022-08-16T22:16:28.929Z,22.40
2022-08-16T22:18:56.764Z,22.40
2022-08-16T22:21:24.785Z,22.40
2022-08-16T22:23:57.776Z,22.30
2022-08-16T22:26:29.706Z,22.30
2022-08-16T22:28:58.622Z,22.30
2022-08-16T22:31:27.822Z,22.20
2022-08-16T22:33:56.727Z,22.20
2022-08-16T22:36:28.102Z,22.20
2022-08-16T22:38:58.727Z,22.10
2022-08-16T22:41:27.727Z,22.10
2022-08-16T22:43:55.956Z,22.10
2022-08-16T22:46:24.019Z,22.00
2022-08-16T22:48:53.156Z,22.00
2022-08-16T22:51:23.035Z,21.90
2022-08-16T22:53:51.038Z,21.90
2022-08-16T22:56:19.233Z,21.80
2022-08-16T22:58:47.420Z,21.80
2022-08-16T23:01:16.790Z,21.80
2022-08-16T23:03:45.143Z,21.80
2022-08-16T23:06:15.001Z,21.70
2022-08-16T23:08:43.985Z,21.70
2022-08-16T23:11:15.432Z,21.70
2022-08-16T23:13:52.444Z,21.70
2022-08-16T23:16:25.088Z,21.60
2022-08-16T23:19:00.779Z,21.60
2022-08-16T23:21:30.382Z,21.60
2022-08-16T23:23:58.266Z,21.50
2022-08-16T23:26:46.735Z,21.50
2022-08-16T23:29:22.297Z,21.50
2022-08-16T23:31:53.982Z,21.50
2022-08-16T23:34:21.907Z,21.40
2022-08-16T23:36:51.029Z,21.40
2022-08-16T23:39:18.979Z,21.40
2022-08-16T23:41:46.766Z,21.40
2022-08-16T23:44:56.335Z,21.40
2022-08-16T23:47:02.338Z,21.40
2022-08-16T23:50:01.701Z,21.30
2022-08-16T23:52:45.265Z,21.30
2022-08-16T23:55:10.802Z,21.30
2022-08-16T23:57:38.584Z,21.20
